createdAt,value
2022-08-17T00:00:06.387Z,67.87
2022-08-17T00:10:13.866Z,68.82
2022-08-17T00:20:18.452Z,67.79
2022-08-17T00:30:26.296Z,67.03
2022-08-17T00:40:40.759Z,67.94
2022-08-17T00:50:57.741Z,67.08
2022-08-17T01:01:02.187Z,68.38
2022-08-17T01:11:07.117Z,67.98
2022-08-17T01:21:13.991Z,68.13
2022-08-17T01:31:18.586Z,67.80
2022-08-17T01:41:23.674Z,68.43
2022-08-17T01:51:32.472Z,67.44
2022-08-17T02:01:37.096Z,66.92
2022-08-17T02:11:41.976Z,66.98
2022-08-17T02:21:48.089Z,67.47
2022-08-17T02:31:52.694Z,67.14
2022-08-17T02:42:02.054Z,66.19
2022-08-17T02:52:07.821Z,66.30
2022-08-17T03:02:12.940Z,66.72
2022-08-17T03:12:17.964Z,66.86
2022-08-17T03:22:36.956Z,66.47
2022-08-17T03:32:45.777Z,67.27
2022-08-17T03:42:49.206Z,67.33
2022-08-17T03:53:25.934Z,66.85
2022-08-17T04:03:29.187Z,66.21
2022-08-17T04:13:33.889Z,67.04
2022-08-17T04:23:37.910Z,66.18
2022-08-17T04:33:44.132Z,66.15
2022-08-17T04:43:49.441Z,66.02
2022-08-17T04:53:56.354Z,66.05
2022-08-17T05:04:20.753Z,66.22
2022-08-17T05:14:32.456Z,66.70
2022-08-17T05:24:42.850Z,67.18
2022-08-17T05:35:00.640Z,65.61
2022-08-17T05:45:04.136Z,65.03
2022-08-17T05:55:15.129Z,63.67
2022-08-17T06:05:19.444Z,62.29
2022-08-17T06:15:35.543Z,61.11
2022-08-17T06:25:44.375Z,58.09
2022-08-17T06:35:56.857Z,54.45
2022-08-17T06:46:06.780Z,53.38
2022-08-17T06:56:12.911Z,51.92
2022-08-17T07:06:18.840Z,51.00
2022-08-17T07:16:27.572Z,50.07
2022-08-17T07:26:30.735Z,47.87
2022-08-17T07:36:36.082Z,45.56
2022-08-17T07:47:06.951Z,44.75
2022-08-17T07:57:31.113Z,43.98
2022-08-17T08:07:40.054Z,43.61
2022-08-17T08:17:52.194Z,42.62
2022-08-17T08:28:04.824Z,41.56
2022-08-17T08:38:20.044Z,37.41
2022-08-17T08:48:56.189Z,36.38
2022-08-17T08:59:07.290Z,33.91
2022-08-17T09:09:18.221Z,34.11
2022-08-17T09:19:32.483Z,34.10
2022-08-17T09:29:40.577Z,33.10
2022-08-17T09:39:52.823Z,32.08
2022-08-17T09:50:00.424Z,31.99
2022-08-17T10:00:21.432Z,30.25
2022-08-17T10:10:30.567Z,29.29
2022-08-17T10:20:42.940Z,28.67
2022-08-17T10:30:49.928Z,27.64
2022-08-17T10:40:58.460Z,25.89
2022-08-17T10:51:02.757Z,26.32
2022-08-17T11:01:08.911Z,25.67
2022-08-17T11:11:34.464Z,24.74
2022-08-17T11:21:57.374Z,23.47
2022-08-17T11:32:05.198Z,19.98
2022-08-17T11:42:11.940Z,21.27
2022-08-17T11:52:36.804Z,18.63
2022-08-17T12:02:48.242Z,18.95
2022-08-17T12:12:54.670Z,18.91
2022-08-17T12:23:05.011Z,19.00
2022-08-17T12:33:13.711Z,19.76
2022-08-17T12:43:33.685Z,18.76
2022-08-17T12:53:36.921Z,18.71
2022-08-17T13:03:43.074Z,18.36
2022-08-17T13:13:49.185Z,18.36
2022-08-17T13:23:59.057Z,18.04
2022-08-17T13:34:16.947Z,16.90
2022-08-17T13:44:34.470Z,17.95
2022-08-17T13:54:38.605Z,17.07
2022-08-17T14:04:45.069Z,17.32
2022-08-17T14:14:49.621Z,18.37
2022-08-17T14:24:54.692Z,17.18
2022-08-17T14:34:59.254Z,18.16
2022-08-17T14:45:06.322Z,19.10
2022-08-17T14:55:29.782Z,19.55
2022-08-17T15:05:36.892Z,18.64
2022-08-17T15:15:40.669Z,18.77
2022-08-17T15:25:45.677Z,17.84
2022-08-17T15:35:51.337Z,18.61
2022-08-17T15:46:00.993Z,19.06
2022-08-17T15:56:05.440Z,19.18
2022-08-17T16:06:09.999Z,19.38
2022-08-17T16:16:14.801Z,19.48
2022-08-17T16:26:19.988Z,20.15
2022-08-17T16:36:23.456Z,20.17
2022-08-17T16:46:29.402Z,19.91
2022-08-17T16:56:35.236Z,20.68
2022-08-17T17:06:45.140Z,21.31
2022-08-17T17:16:53.544Z,21.81
2022-08-17T17:27:19.937Z,22.12
2022-08-17T17:37:27.427Z,27.21
2022-08-17T17:47:33.700Z,30.57
2022-08-17T17:57:55.862Z,31.50
2022-08-17T18:08:09.253Z,33.42
2022-08-17T18:18:31.113Z,33.39
2022-08-17T18:28:38.979Z,36.54
2022-08-17T18:38:43.873Z,37.75
2022-08-17T18:48:59.131Z,38.36
2022-08-17T18:59:11.696Z,38.86
2022-08-17T19:09:34.068Z,39.91
2022-08-17T19:19:40.155Z,39.84
2022-08-17T19:29:50.173Z,41.41
2022-08-17T19:39:59.134Z,42.45
2022-08-17T19:50:10.177Z,43.82
2022-08-17T20:00:16.246Z,45.23
2022-08-17T20:10:28.144Z,45.97
2022-08-17T20:20:36.649Z,46.56
2022-08-17T20:30:42.310Z,46.50
2022-08-17T20:41:11.556Z,47.93
2022-08-17T20:51:27.147Z,48.15
2022-08-17T21:01:39.636Z,48.01
2022-08-17T21:12:05.283Z,49.05
2022-08-17T21:22:20.178Z,49.06
2022-08-17T21:32:31.322Z,49.19
2022-08-17T21:42:38.329Z,49.60
2022-08-17T21:52:42.885Z,50.32
2022-08-17T22:02:55.444Z,51.35
2022-08-17T22:13:16.916Z,51.99
2022-08-17T22:23:44.112Z,52.08
2022-08-17T22:33:50.166Z,53.47
2022-08-17T22:43:54.103Z,54.65
2022-08-17T22:54:20.135Z,56.30
2022-08-17T23:04:33.575Z,54.33
2022-08-17T23:14:42.496Z,54.60
2022-08-17T23:24:49.024Z,54.63
2022-08-17T23:34:53.576Z,54.76
2022-08-17T23:44:56.776Z,55.20
2022-08-17T23:55:01.377Z,55.11
